Time;durP1;ratioP1;P1;durP2;ratioP2;P2;SDS_P1;SDS_P2;PMS_P1;PMS_P2;Temp;Humidity;BMP_temperature;BMP_pressure;BME280_temperature;BME280_humidity;BME280_pressure;Samples;Min_cycle;Max_cycle;Signal;HPM_P1;HPM_P2
2022/12/20 00:01:19;;;;;;;15.17;8.80;;;2.20;99.90;1.90;101000.00;;;;5005821;27;90399;-69
2022/12/20 00:03:45;;;;;;;16.07;9.23;;;2.20;99.90;1.90;100991.00;;;;5010069;27;87794;-67
2022/12/20 00:06:13;;;;;;;18.07;10.50;;;2.10;99.90;1.90;101000.00;;;;5008240;27;87944;-66
2022/12/20 00:08:39;;;;;;;17.43;9.43;;;2.20;99.90;1.90;100992.00;;;;5011989;27;88458;-68
2022/12/20 00:11:08;;;;;;;19.53;9.93;;;2.30;99.90;1.90;101004.00;;;;5008592;27;87991;-67
2022/12/20 00:13:34;;;;;;;11.33;7.27;;;2.10;99.90;1.90;101010.00;;;;5013105;27;87694;-67
2022/12/20 00:16:12;;;;;;;12.97;10.43;;;2.10;99.90;1.90;100994.00;;;;5008478;27;91442;-68
2022/12/20 00:18:40;;;;;;;13.30;8.70;;;2.30;99.90;1.90;100996.00;;;;5006299;27;96953;-68
2022/12/20 00:21:09;;;;;;;14.33;9.03;;;2.20;99.90;1.90;100979.00;;;;5010900;27;87457;-69
2022/12/20 00:23:36;;;;;;;13.27;9.70;;;2.20;99.90;1.80;100972.00;;;;5007552;27;88107;-68
2022/12/20 00:26:16;;;;;;;19.83;9.60;;;2.30;99.90;1.80;100997.00;;;;5011294;27;88138;-68
2022/12/20 00:28:42;;;;;;;14.40;8.43;;;2.10;99.90;1.90;100976.00;;;;4993499;27;87662;-68
2022/12/20 00:31:11;;;;;;;13.63;7.33;;;2.10;99.90;1.80;100974.00;;;;5006907;27;99932;-67
2022/12/20 00:33:37;;;;;;;12.97;8.23;;;2.20;99.90;1.80;100975.00;;;;5007648;27;100984;-67
2022/12/20 00:36:05;;;;;;;12.57;8.43;;;2.10;99.90;1.80;100969.00;;;;5013084;27;88255;-68
2022/12/20 00:38:31;;;;;;;17.07;9.67;;;2.10;99.90;1.90;100967.00;;;;4995101;27;87542;-67
2022/12/20 00:41:08;;;;;;;14.80;10.10;;;2.20;99.90;1.90;100957.00;;;;4994585;27;88795;-67
2022/12/20 00:43:34;;;;;;;18.00;8.57;;;2.20;99.90;1.90;100947.00;;;;5011248;27;87748;-67
2022/12/20 00:46:01;;;;;;;15.13;9.20;;;2.20;99.90;1.90;100952.00;;;;5009223;27;88921;-67
2022/12/20 00:48:28;;;;;;;15.43;9.20;;;2.20;99.90;2.00;100949.00;;;;5012793;27;108524;-69
2022/12/20 00:50:59;;;;;;;16.77;8.73;;;2.30;99.90;2.00;100951.00;;;;5015084;27;87873;-67
2022/12/20 00:53:25;;;;;;;15.07;9.33;;;2.20;99.90;2.10;100937.00;;;;5010264;27;87926;-68
2022/12/20 00:55:51;;;;;;;15.93;8.67;;;2.30;99.90;2.10;100929.00;;;;5007893;27;87474;-68
2022/12/20 00:58:16;;;;;;;15.73;8.93;;;2.40;99.90;2.20;100914.00;;;;5012026;27;118714;-68
2022/12/20 01:00:42;;;;;;;12.83;8.43;;;2.50;99.90;2.30;100916.00;;;;5002591;27;108335;-69
2022/12/20 01:03:08;;;;;;;15.87;9.50;;;2.40;99.90;2.30;100916.00;;;;5016458;27;87801;-67
2022/12/20 01:05:34;;;;;;;17.17;9.67;;;2.50;99.90;2.30;100916.00;;;;5014760;27;90055;-68
2022/12/20 01:08:00;;;;;;;14.27;8.03;;;2.60;99.90;2.40;100917.00;;;;5013170;27;89633;-67
2022/12/20 01:10:26;;;;;;;14.10;8.47;;;2.60;99.90;2.40;100922.00;;;;5013763;27;110399;-67
2022/12/20 01:12:52;;;;;;;21.60;9.60;;;2.70;99.90;2.50;100931.00;;;;5008153;27;88040;-68
2022/12/20 01:15:20;;;;;;;17.17;10.00;;;2.70;99.90;2.60;100928.00;;;;5012881;27;104226;-69
2022/12/20 01:17:46;;;;;;;12.73;8.97;;;2.80;99.90;2.60;100937.00;;;;4993223;27;87767;-67
2022/12/20 01:20:12;;;;;;;18.27;8.67;;;2.90;99.90;2.60;100929.00;;;;5010070;27;89326;-69
2022/12/20 01:22:37;;;;;;;12.40;7.87;;;2.90;99.90;2.70;100916.00;;;;5010490;27;97781;-68
2022/12/20 01:25:04;;;;;;;12.60;8.23;;;2.90;99.90;2.70;100920.00;;;;5007996;27;88853;-67
2022/12/20 01:27:29;;;;;;;15.33;9.10;;;2.90;99.90;2.70;100921.00;;;;5012028;27;101459;-68
2022/12/20 01:29:55;;;;;;;13.43;8.50;;;2.90;99.90;2.70;100920.00;;;;5014490;27;110234;-68
2022/12/20 01:32:21;;;;;;;13.33;9.10;;;2.90;99.90;2.70;100923.00;;;;5015199;27;108975;-68
2022/12/20 01:34:47;;;;;;;14.90;9.30;;;3.00;99.90;2.70;100935.00;;;;5011684;27;117451;-68
2022/12/20 01:37:12;;;;;;;14.90;8.50;;;3.00;99.90;2.70;100947.00;;;;5012810;27;87673;-68
2022/12/20 01:39:38;;;;;;;14.47;9.53;;;3.00;99.90;2.70;100961.00;;;;5011604;27;110641;-68
2022/12/20 01:42:04;;;;;;;17.03;8.73;;;3.00;99.90;2.70;100956.00;;;;5010101;27;87787;-67
2022/12/20 01:44:30;;;;;;;12.67;8.93;;;2.80;99.90;2.70;100958.00;;;;5013884;27;87743;-67
2022/12/20 01:46:57;;;;;;;14.47;8.00;;;2.80;99.90;2.70;100945.00;;;;5015743;27;117055;-69
2022/12/20 01:49:46;;;;;;;15.50;9.57;;;3.00;99.90;2.70;100949.00;;;;5011037;27;87623;-67
2022/12/20 01:52:25;;;;;;;15.53;9.60;;;2.90;99.90;2.70;100938.00;;;;5009955;27;87706;-69
2022/12/20 01:55:04;;;;;;;12.77;9.10;;;3.00;99.90;2.70;100935.00;;;;5007327;27;90687;-67
2022/12/20 01:57:57;;;;;;;12.13;8.87;;;2.90;99.90;2.70;100924.00;;;;5010767;27;88390;-67
2022/12/20 02:00:23;;;;;;;17.50;8.67;;;3.00;99.90;2.70;100929.00;;;;5009413;27;87692;-67
2022/12/20 02:02:49;;;;;;;12.77;8.93;;;3.00;99.90;2.80;100932.00;;;;4996669;27;87731;-67
2022/12/20 02:05:19;;;;;;;13.97;8.07;;;3.00;99.90;2.80;100925.00;;;;4991156;27;88509;-70
2022/12/20 02:07:49;;;;;;;16.17;8.70;;;3.00;99.90;2.80;100917.00;;;;5012049;27;111211;-67
2022/12/20 02:10:15;;;;;;;16.53;9.70;;;3.00;99.90;2.80;100904.00;;;;5011663;27;87852;-70
2022/12/20 02:12:44;;;;;;;14.30;9.27;;;3.10;99.90;2.80;100921.00;;;;5012134;27;95165;-69
2022/12/20 02:15:28;;;;;;;16.40;9.27;;;2.90;99.90;2.80;100918.00;;;;4993875;27;87827;-68
2022/12/20 02:18:24;;;;;;;19.23;9.60;;;3.10;99.90;2.80;100914.00;;;;5010886;27;87930;-68
2022/12/20 02:21:13;;;;;;;17.67;9.27;;;3.10;99.90;2.80;100920.00;;;;4995070;27;88856;-68
2022/12/20 02:24:41;;;;;;;12.80;8.07;;;3.10;99.90;2.90;100925.00;;;;5012834;27;87792;-69
2022/12/20 02:27:35;;;;;;;14.27;9.30;;;3.10;99.90;2.90;100924.00;;;;5011775;27;110682;-68
2022/12/20 02:30:22;;;;;;;8.90;6.57;;;3.00;99.90;2.90;100890.00;;;;5011396;27;90276;-68
2022/12/20 02:32:59;;;;;;;13.73;7.57;;;3.20;99.90;2.90;100908.00;;;;5009970;27;87477;-68
2022/12/20 02:35:30;;;;;;;17.63;8.20;;;3.20;99.90;2.90;100911.00;;;;4991633;27;87869;-68
2022/12/20 02:38:02;;;;;;;13.97;9.73;;;3.20;99.90;2.90;100907.00;;;;5009151;27;88032;-69
2022/12/20 02:40:38;;;;;;;15.73;8.50;;;3.20;99.90;2.90;100915.00;;;;4996833;27;90753;-67
2022/12/20 02:45:14;;;;;;;12.67;6.90;;;3.20;99.90;2.90;100898.00;;;;5007031;27;87834;-69
2022/12/20 02:45:56;;;;;;;17.10;9.00;;;3.20;99.90;2.90;100891.00;;;;5011247;27;87683;-68
2022/12/20 02:48:24;;;;;;;15.50;8.43;;;3.20;99.90;2.90;100897.00;;;;5009260;27;112466;-68
2022/12/20 02:50:53;;;;;;;12.90;8.00;;;3.30;99.90;2.90;100900.00;;;;5013681;27;88152;-67
2022/12/20 02:53:21;;;;;;;13.07;8.07;;;3.10;99.90;2.80;100890.00;;;;5008098;27;87750;-68
2022/12/20 02:55:56;;;;;;;19.63;10.00;;;3.10;99.90;2.90;100889.00;;;;4990075;27;100210;-68
2022/12/20 02:59:00;;;;;;;17.17;9.07;;;3.20;99.90;2.90;100902.00;;;;5004602;27;88074;-68
2022/12/20 03:01:35;;;;;;;14.23;8.17;;;3.10;99.90;2.90;100904.00;;;;5006408;27;87680;-67
2022/12/20 03:04:02;;;;;;;14.27;9.37;;;3.20;99.90;2.90;100908.00;;;;5007703;27;97794;-69
2022/12/20 03:06:29;;;;;;;18.33;8.63;;;3.20;99.90;3.00;100892.00;;;;5005129;27;107245;-68
2022/12/20 03:08:55;;;;;;;12.93;7.83;;;3.20;99.90;3.00;100890.00;;;;5009204;27;87504;-68
2022/12/20 03:11:21;;;;;;;10.90;7.40;;;3.20;99.90;3.00;100895.00;;;;5009398;27;88425;-68
2022/12/20 03:13:47;;;;;;;11.27;8.27;;;3.30;99.90;3.00;100896.00;;;;5010547;27;91370;-68
2022/12/20 03:16:14;;;;;;;14.60;8.27;;;3.30;99.90;3.00;100875.00;;;;4993298;27;108612;-70
2022/12/20 03:18:39;;;;;;;15.10;7.83;;;3.20;99.90;3.00;100868.00;;;;5009045;27;87956;-67
2022/12/20 03:21:05;;;;;;;18.33;8.03;;;3.50;99.90;3.00;100881.00;;;;5013307;27;94565;-68
2022/12/20 03:23:31;;;;;;;21.27;10.03;;;3.20;99.90;3.00;100875.00;;;;5010048;27;99238;-68
2022/12/20 03:25:57;;;;;;;13.10;9.37;;;3.20;99.90;3.00;100875.00;;;;5011166;27;93828;-68
2022/12/20 03:28:23;;;;;;;15.97;9.20;;;3.20;99.90;2.90;100869.00;;;;5006280;27;118427;-68
2022/12/20 03:30:49;;;;;;;24.70;8.43;;;3.20;99.90;2.90;100873.00;;;;4993099;27;117208;-68
2022/12/20 03:33:15;;;;;;;14.13;8.93;;;3.30;99.90;2.90;100865.00;;;;4989527;27;87611;-68
2022/12/20 03:35:41;;;;;;;15.90;9.73;;;3.20;99.90;2.90;100866.00;;;;5008047;27;108061;-68
2022/12/20 03:38:06;;;;;;;17.07;8.63;;;3.20;99.90;3.00;100870.00;;;;5009113;27;108083;-67
2022/12/20 03:40:32;;;;;;;13.43;8.83;;;3.10;99.90;2.90;100865.00;;;;5009686;27;88273;-66
2022/12/20 03:42:58;;;;;;;13.83;8.77;;;3.20;99.90;3.00;100864.00;;;;5008132;27;109780;-67
2022/12/20 03:45:24;;;;;;;11.30;7.47;;;3.20;99.90;3.00;100864.00;;;;5011263;27;87679;-67
2022/12/20 03:47:49;;;;;;;13.60;8.30;;;3.40;99.90;3.00;100861.00;;;;5011271;27;117201;-68
2022/12/20 03:50:15;;;;;;;14.10;8.47;;;3.20;99.90;3.00;100864.00;;;;4993424;27;89381;-69
2022/12/20 03:52:41;;;;;;;13.17;8.43;;;3.20;99.90;3.10;100880.00;;;;5008725;27;87931;-67
2022/12/20 03:55:08;;;;;;;11.70;8.70;;;3.30;99.90;3.10;100872.00;;;;5008143;27;107830;-67
2022/12/20 03:57:34;;;;;;;11.53;7.20;;;3.30;99.90;3.10;100882.00;;;;5008313;27;88347;-68
2022/12/20 04:00:00;;;;;;;11.83;8.90;;;3.30;99.90;3.10;100889.00;;;;5008389;27;105720;-69
2022/12/20 04:02:26;;;;;;;13.50;8.73;;;3.80;99.90;3.20;100882.00;;;;5006846;27;89107;-67
2022/12/20 04:04:52;;;;;;;11.23;8.10;;;3.30;99.90;3.20;100881.00;;;;5009371;27;102066;-67
2022/12/20 04:07:18;;;;;;;11.83;7.80;;;3.40;99.90;3.20;100874.00;;;;5009011;27;91543;-69
2022/12/20 04:09:44;;;;;;;17.47;10.13;;;3.50;99.90;3.30;100881.00;;;;5012160;27;116664;-67
2022/12/20 04:12:09;;;;;;;16.70;9.47;;;3.50;99.90;3.30;100873.00;;;;5014920;27;87923;-68
2022/12/20 04:14:36;;;;;;;21.23;10.30;;;4.20;99.90;3.30;100868.00;;;;5014006;27;108491;-69
2022/12/20 04:17:02;;;;;;;15.53;9.27;;;3.50;99.90;3.30;100876.00;;;;5015839;27;89108;-68
2022/12/20 04:19:28;;;;;;;15.00;8.07;;;3.60;99.90;3.30;100878.00;;;;5012239;27;97162;-68
2022/12/20 04:21:55;;;;;;;16.17;9.67;;;3.50;99.90;3.30;100868.00;;;;5012905;27;110632;-67
2022/12/20 04:24:21;;;;;;;15.93;8.50;;;3.50;99.90;3.30;100884.00;;;;5009984;27;88118;-68
2022/12/20 04:26:48;;;;;;;10.93;7.40;;;3.60;99.90;3.30;100878.00;;;;5014918;27;118986;-68
2022/12/20 04:29:14;;;;;;;14.87;9.73;;;3.60;99.90;3.40;100876.00;;;;5011727;27;87448;-68
2022/12/20 04:31:40;;;;;;;12.27;7.77;;;3.60;99.90;3.40;100870.00;;;;5015634;27;87680;-67
2022/12/20 04:34:06;;;;;;;15.97;9.00;;;3.60;99.90;3.40;100871.00;;;;5014940;27;87900;-69
2022/12/20 04:36:31;;;;;;;20.33;10.00;;;4.30;99.90;3.40;100865.00;;;;5014693;27;117863;-68
2022/12/20 04:38:57;;;;;;;12.07;7.87;;;3.60;99.90;3.40;100860.00;;;;5013386;27;111275;-68
2022/12/20 04:41:23;;;;;;;17.63;7.80;;;3.70;99.90;3.40;100870.00;;;;4993807;27;113488;-68
2022/12/20 04:43:55;;;;;;;17.20;8.70;;;3.70;99.90;3.30;100866.00;;;;4996511;27;87223;-68
2022/12/20 04:46:23;;;;;;;17.17;10.77;;;3.60;99.90;3.40;100876.00;;;;5008960;27;87626;-68
2022/12/20 04:48:49;;;;;;;16.57;8.80;;;3.60;99.90;3.40;100867.00;;;;5013956;27;95561;-69
2022/12/20 04:51:15;;;;;;;10.77;8.40;;;3.50;99.90;3.40;100860.00;;;;5008021;27;88677;-67
2022/12/20 04:53:48;;;;;;;16.67;9.00;;;3.60;99.90;3.40;100855.00;;;;5014755;27;91586;-68
2022/12/20 04:56:28;;;;;;;13.23;8.80;;;3.60;99.90;3.40;100849.00;;;;5011277;27;87949;-67
2022/12/20 04:58:56;;;;;;;14.13;9.10;;;3.70;99.90;3.40;100871.00;;;;4995418;27;87621;-66
2022/12/20 05:01:22;;;;;;;15.77;10.07;;;4.50;99.90;3.40;100866.00;;;;5014427;27;88192;-69
2022/12/20 05:03:48;;;;;;;18.30;8.67;;;3.60;99.90;3.40;100873.00;;;;5010381;27;87838;-69
2022/12/20 05:06:15;;;;;;;17.27;9.27;;;3.70;99.90;3.50;100870.00;;;;4984297;27;111415;-69
2022/12/20 05:08:41;;;;;;;15.07;8.90;;;3.70;99.90;3.50;100863.00;;;;5010500;27;88112;-70
2022/12/20 05:11:08;;;;;;;13.60;7.43;;;3.70;99.90;3.40;100865.00;;;;5012151;27;87634;-70
2022/12/20 05:13:33;;;;;;;16.60;8.47;;;3.70;99.90;3.50;100860.00;;;;4978746;27;87975;-68
2022/12/20 05:15:59;;;;;;;12.67;8.50;;;3.60;99.90;3.50;100855.00;;;;5012983;27;90121;-68
2022/12/20 05:18:26;;;;;;;14.77;8.97;;;3.80;99.90;3.50;100857.00;;;;5009848;27;108551;-68
2022/12/20 05:26:31;;;;;;;15.50;8.83;;;3.80;99.90;3.50;100863.00;;;;5015337;27;87798;-69
2022/12/20 05:28:57;;;;;;;21.10;9.90;;;3.80;99.90;3.60;100856.00;;;;4993800;27;88065;-66
2022/12/20 05:31:22;;;;;;;14.83;9.13;;;3.80;99.90;3.60;100857.00;;;;5012497;27;110260;-66
2022/12/20 05:33:48;;;;;;;14.43;8.93;;;3.80;99.90;3.60;100850.00;;;;5011156;27;87211;-70
2022/12/20 05:36:14;;;;;;;17.23;8.80;;;3.80;99.90;3.60;100852.00;;;;5008249;27;88586;-67
2022/12/20 05:38:40;;;;;;;14.63;9.70;;;3.90;99.90;3.60;100851.00;;;;5011924;27;87796;-66
2022/12/20 05:41:06;;;;;;;14.07;8.57;;;3.90;99.90;3.70;100845.00;;;;5014513;27;88760;-67
2022/12/20 05:43:31;;;;;;;12.87;8.03;;;3.80;99.90;3.70;100846.00;;;;4994595;27;87786;-67
2022/12/20 05:45:57;;;;;;;14.63;8.80;;;3.90;99.90;3.70;100854.00;;;;5013663;27;118805;-67
2022/12/20 05:48:23;;;;;;;16.53;9.70;;;3.90;99.90;3.80;100847.00;;;;5006620;27;117539;-69
2022/12/20 05:50:48;;;;;;;17.50;9.57;;;3.90;99.90;3.80;100839.00;;;;5012047;27;104646;-68
2022/12/20 05:53:15;;;;;;;17.07;9.80;;;4.00;99.90;3.80;100843.00;;;;5013080;27;93213;-68
2022/12/20 05:55:46;;;;;;;17.83;9.47;;;4.00;99.90;3.80;100852.00;;;;5010951;27;88540;-68
2022/12/20 05:58:12;;;;;;;15.17;8.37;;;4.50;99.90;3.90;100850.00;;;;4994989;27;87973;-67
2022/12/20 06:00:42;;;;;;;15.43;9.33;;;4.90;99.90;3.80;100850.00;;;;5005054;27;87741;-67
2022/12/20 06:03:10;;;;;;;13.17;8.27;;;3.40;99.90;3.80;100850.00;;;;4993116;27;87927;-67
2022/12/20 06:05:38;;;;;;;12.40;8.60;;;4.00;99.90;3.90;100846.00;;;;5011515;27;89000;-68
2022/12/20 06:08:05;;;;;;;11.83;8.53;;;4.10;99.90;3.90;100854.00;;;;4993771;27;88271;-67
2022/12/20 06:10:33;;;;;;;16.07;9.70;;;4.10;99.90;3.90;100849.00;;;;5010399;27;87736;-68
2022/12/20 06:13:01;;;;;;;14.63;8.37;;;4.10;99.90;3.90;100844.00;;;;5010272;27;87944;-67
2022/12/20 06:15:27;;;;;;;18.47;9.30;;;3.50;99.90;3.90;100844.00;;;;5009366;27;88267;-68
2022/12/20 06:17:52;;;;;;;12.90;8.73;;;4.10;99.90;3.90;100846.00;;;;5009527;27;88353;-68
2022/12/20 06:20:18;;;;;;;16.23;9.37;;;4.10;99.90;3.90;100838.00;;;;5010358;27;108816;-67
2022/12/20 06:22:44;;;;;;;14.97;9.30;;;4.00;99.90;3.90;100838.00;;;;5007366;27;109470;-67
2022/12/20 06:25:11;;;;;;;15.30;8.63;;;4.10;99.90;3.90;100848.00;;;;5004272;27;118581;-67
2022/12/20 06:27:37;;;;;;;20.83;8.20;;;4.10;99.90;3.90;100843.00;;;;5007115;27;88609;-68
2022/12/20 06:30:05;;;;;;;18.30;9.60;;;4.60;99.90;3.90;100846.00;;;;4991020;27;89244;-67
2022/12/20 06:32:30;;;;;;;15.83;8.20;;;4.10;99.90;3.90;100859.00;;;;4991171;27;88223;-67
2022/12/20 06:34:56;;;;;;;13.30;8.53;;;4.10;99.90;3.90;100849.00;;;;5010556;27;116391;-67
2022/12/20 06:37:22;;;;;;;20.20;9.57;;;4.10;99.90;3.90;100859.00;;;;5008961;27;118041;-67
2022/12/20 06:39:47;;;;;;;17.60;10.50;;;4.20;99.90;4.00;100846.00;;;;4990979;27;88115;-69
2022/12/20 06:42:13;;;;;;;12.07;8.87;;;4.10;99.90;3.90;100855.00;;;;5005062;27;106946;-67
2022/12/20 06:44:39;;;;;;;18.63;8.70;;;4.10;99.90;4.00;100855.00;;;;5007507;27;117709;-69
2022/12/20 06:47:04;;;;;;;15.33;8.40;;;4.30;99.90;3.90;100848.00;;;;5009121;27;117712;-68
2022/12/20 06:49:30;;;;;;;22.77;9.77;;;4.20;99.90;3.90;100832.00;;;;5010740;27;109749;-68
2022/12/20 06:51:56;;;;;;;18.20;10.57;;;4.20;99.90;3.90;100845.00;;;;5009590;27;88613;-69
2022/12/20 06:54:22;;;;;;;15.97;8.87;;;4.10;99.90;3.90;100846.00;;;;5002183;27;118681;-68
2022/12/20 06:56:47;;;;;;;15.53;9.13;;;4.00;99.90;3.90;100848.00;;;;5009732;27;88899;-67
2022/12/20 06:59:13;;;;;;;17.23;7.90;;;4.10;99.90;3.90;100839.00;;;;4997428;27;110805;-67
2022/12/20 07:01:39;;;;;;;18.53;8.83;;;4.10;99.90;3.90;100827.00;;;;4987928;27;87870;-67
2022/12/20 07:04:04;;;;;;;14.37;8.83;;;4.00;99.90;3.80;100836.00;;;;5008740;27;88600;-69
2022/12/20 07:06:31;;;;;;;11.13;8.27;;;4.50;99.90;3.80;100844.00;;;;4999177;27;116649;-68
2022/12/20 07:08:57;;;;;;;19.43;9.33;;;4.10;99.90;3.80;100837.00;;;;4986235;27;88592;-68
2022/12/20 07:11:22;;;;;;;16.40;7.93;;;4.00;99.90;3.80;100846.00;;;;4987202;28;110379;-68
2022/12/20 07:13:49;;;;;;;11.43;7.60;;;4.60;99.90;3.80;100846.00;;;;4986787;27;117422;-67
2022/12/20 07:16:14;;;;;;;14.87;8.63;;;4.70;99.90;3.80;100850.00;;;;4989883;27;88027;-69
2022/12/20 07:18:40;;;;;;;12.10;8.53;;;4.00;99.90;3.80;100862.00;;;;4983094;27;111086;-68
2022/12/20 07:21:06;;;;;;;18.73;8.90;;;4.00;99.90;3.80;100865.00;;;;4985418;27;109804;-67
2022/12/20 07:23:32;;;;;;;13.87;9.27;;;4.00;99.90;3.80;100860.00;;;;4988759;27;115099;-67
2022/12/20 07:26:00;;;;;;;17.67;7.53;;;3.90;99.90;3.80;100852.00;;;;4988060;27;113326;-67
2022/12/20 07:28:26;;;;;;;15.13;8.53;;;4.00;99.90;3.80;100858.00;;;;4988010;28;88037;-68
2022/12/20 07:30:53;;;;;;;12.67;8.43;;;4.00;99.90;3.80;100862.00;;;;4969702;27;88101;-67
2022/12/20 07:33:19;;;;;;;12.27;7.77;;;4.00;99.90;3.70;100849.00;;;;4988240;28;88925;-67
2022/12/20 07:35:45;;;;;;;12.13;7.80;;;3.90;99.90;3.70;100852.00;;;;4985786;28;88475;-67
2022/12/20 07:38:12;;;;;;;18.23;8.03;;;4.00;99.90;3.70;100862.00;;;;4988231;27;87721;-69
2022/12/20 07:40:42;;;;;;;13.27;9.47;;;3.90;99.90;3.80;100858.00;;;;4968467;27;87897;-68
2022/12/20 07:43:09;;;;;;;12.63;8.80;;;3.90;99.90;3.80;100859.00;;;;4985320;27;89106;-70
2022/12/20 07:45:36;;;;;;;17.53;9.00;;;3.90;99.90;3.80;100871.00;;;;4984196;28;89816;-69
2022/12/20 07:48:03;;;;;;;15.70;8.47;;;4.00;99.90;3.80;100878.00;;;;4987320;28;87917;-69
2022/12/20 07:50:31;;;;;;;12.87;8.63;;;4.10;99.90;3.80;100870.00;;;;4986555;27;87360;-69
2022/12/20 07:52:58;;;;;;;14.83;9.47;;;4.10;99.90;3.80;100857.00;;;;4969256;28;88514;-68
2022/12/20 07:55:24;;;;;;;19.00;9.80;;;4.00;99.90;3.90;100867.00;;;;4983373;28;90487;-68
2022/12/20 07:57:54;;;;;;;12.10;8.53;;;4.00;99.90;3.90;100868.00;;;;4965822;27;110341;-70
2022/12/20 08:00:20;;;;;;;13.90;8.10;;;4.10;99.90;3.90;100865.00;;;;4958862;28;87273;-69
2022/12/20 08:02:59;;;;;;;14.13;8.50;;;4.10;99.90;3.90;100857.00;;;;4966760;28;89334;-69
2022/12/20 08:05:25;;;;;;;18.00;9.23;;;4.10;99.90;3.90;100850.00;;;;4968019;28;101742;-70
2022/12/20 08:07:53;;;;;;;12.83;8.50;;;4.10;99.90;3.90;100834.00;;;;4970131;28;88702;-70
2022/12/20 08:10:19;;;;;;;17.47;9.93;;;4.00;99.90;3.90;100849.00;;;;4988276;27;109014;-67
2022/12/20 08:12:47;;;;;;;17.60;8.23;;;4.10;99.90;3.90;100850.00;;;;4985087;27;88083;-70
2022/12/20 08:15:14;;;;;;;19.53;9.67;;;4.50;99.90;3.90;100850.00;;;;4952152;28;112060;-69
2022/12/20 08:17:40;;;;;;;17.57;8.53;;;4.00;99.90;3.80;100859.00;;;;4969028;28;87685;-69
2022/12/20 08:20:07;;;;;;;19.47;12.13;;;3.90;99.90;3.80;100866.00;;;;4989498;28;87744;-68
2022/12/20 08:22:34;;;;;;;20.43;12.20;;;4.10;99.90;3.80;100862.00;;;;4988088;28;88966;-68
2022/12/20 08:24:59;;;;;;;22.37;11.57;;;4.80;99.90;3.80;100882.00;;;;4985970;27;96149;-69
2022/12/20 08:27:25;;;;;;;18.00;10.40;;;4.20;99.90;3.80;100870.00;;;;4967907;28;87996;-68
2022/12/20 08:29:51;;;;;;;16.77;10.23;;;4.80;99.90;3.80;100879.00;;;;4987358;28;88217;-69
2022/12/20 08:32:17;;;;;;;13.20;8.90;;;4.10;99.90;3.80;100884.00;;;;4979206;27;89504;-68
2022/12/20 08:34:42;;;;;;;13.73;8.90;;;3.90;99.90;3.70;100881.00;;;;4984450;28;88969;-68
2022/12/20 08:37:08;;;;;;;13.93;8.97;;;4.00;99.90;3.70;100856.00;;;;4964844;28;109776;-68
2022/12/20 08:39:34;;;;;;;22.20;9.60;;;3.90;99.90;3.70;100879.00;;;;4981818;28;107697;-69
2022/12/20 08:41:59;;;;;;;17.10;9.87;;;3.90;99.90;3.70;100858.00;;;;4968107;28;119057;-68
2022/12/20 08:44:25;;;;;;;18.47;9.27;;;3.90;99.90;3.70;100861.00;;;;4983856;28;117600;-68
2022/12/20 08:46:52;;;;;;;13.93;8.23;;;4.00;99.90;3.70;100856.00;;;;4986918;28;87797;-69
2022/12/20 08:49:18;;;;;;;18.43;10.70;;;3.90;99.90;3.70;100857.00;;;;4969492;28;87089;-68
2022/12/20 08:51:44;;;;;;;16.80;9.03;;;4.00;99.90;3.70;100862.00;;;;4955113;28;88527;-69
2022/12/20 08:54:10;;;;;;;17.13;7.17;;;3.80;99.90;3.80;100856.00;;;;4986755;27;115883;-68
2022/12/20 08:56:35;;;;;;;16.67;9.77;;;4.00;99.90;4.00;100850.00;;;;4973750;27;90013;-69
2022/12/20 08:59:01;;;;;;;17.07;9.00;;;4.10;99.90;4.20;100864.00;;;;4971974;28;108386;-70
2022/12/20 09:01:29;;;;;;;19.80;9.87;;;4.30;99.90;4.50;100864.00;;;;4991745;28;117798;-68
2022/12/20 09:03:54;;;;;;;21.53;9.77;;;4.50;99.90;4.80;100858.00;;;;4990067;27;88122;-69
2022/12/20 09:06:22;;;;;;;19.73;10.93;;;4.90;99.90;5.10;100862.00;;;;4968752;27;94827;-69
2022/12/20 09:08:48;;;;;;;16.83;10.13;;;5.20;99.90;5.40;100859.00;;;;4971129;28;88072;-69
2022/12/20 09:11:21;;;;;;;24.73;10.83;;;5.40;99.90;5.60;100860.00;;;;4990808;28;97783;-68
2022/12/20 09:13:49;;;;;;;17.73;10.10;;;6.20;99.90;5.80;100874.00;;;;4991445;27;87923;-67
2022/12/20 09:16:18;;;;;;;23.17;11.67;;;5.70;99.90;5.90;100865.00;;;;4988746;27;87781;-69
2022/12/20 09:18:51;;;;;;;14.00;10.30;;;6.00;99.90;6.10;100858.00;;;;4972102;28;87861;-68
2022/12/20 09:21:19;;;;;;;18.67;10.47;;;6.20;99.90;6.20;100859.00;;;;4969516;28;96285;-69
2022/12/20 09:23:45;;;;;;;18.83;8.10;;;6.20;99.90;6.20;100857.00;;;;4973422;28;102212;-68
2022/12/20 09:26:14;;;;;;;16.97;9.53;;;6.40;99.90;6.10;100872.00;;;;4989050;28;87914;-67
2022/12/20 09:28:40;;;;;;;19.17;9.77;;;6.30;99.90;5.90;100873.00;;;;4973269;28;89206;-68
2022/12/20 09:31:13;;;;;;;22.67;11.50;;;7.30;99.90;5.70;100868.00;;;;4968418;28;88469;-67
2022/12/20 09:33:39;;;;;;;20.50;10.57;;;6.00;99.90;5.40;100859.00;;;;4988569;27;88489;-69
2022/12/20 09:36:06;;;;;;;18.73;10.73;;;5.70;99.90;5.30;100853.00;;;;4989561;28;87992;-67
2022/12/20 09:38:32;;;;;;;18.87;11.23;;;5.60;99.90;5.20;100855.00;;;;4991199;28;87152;-67
2022/12/20 09:41:03;;;;;;;18.33;9.60;;;5.50;99.90;5.10;100850.00;;;;4990254;28;89288;-67
2022/12/20 09:43:29;;;;;;;20.60;10.80;;;5.30;99.90;5.10;100866.00;;;;4991097;27;88074;-67
2022/12/20 09:45:59;;;;;;;23.20;10.40;;;6.00;99.90;5.00;100860.00;;;;4970914;28;107712;-70
2022/12/20 09:48:36;;;;;;;20.30;11.70;;;5.20;99.90;4.90;100858.00;;;;4954324;28;87935;-70
2022/12/20 09:51:05;;;;;;;20.47;10.83;;;5.00;99.90;4.80;100863.00;;;;4968872;28;87851;-66
2022/12/20 09:54:05;;;;;;;17.33;10.47;;;4.90;99.90;4.70;100861.00;;;;4969573;28;89257;-69
2022/12/20 09:56:44;;;;;;;19.93;10.60;;;5.00;99.90;4.60;100851.00;;;;4971991;28;88023;-67
2022/12/20 09:59:17;;;;;;;18.40;11.27;;;4.90;99.90;4.60;100864.00;;;;4950885;28;87869;-68
2022/12/20 10:01:46;;;;;;;19.20;9.17;;;4.90;99.90;4.60;100850.00;;;;4988684;27;88432;-67
2022/12/20 10:04:27;;;;;;;15.53;10.40;;;4.80;99.90;4.60;100851.00;;;;4989211;27;87449;-70
2022/12/20 10:07:17;;;;;;;18.73;9.70;;;4.80;99.90;4.50;100868.00;;;;4952043;28;88284;-68
2022/12/20 10:10:02;;;;;;;21.60;12.27;;;4.70;99.90;4.40;100848.00;;;;4955372;28;87967;-68
2022/12/20 10:12:59;;;;;;;25.73;13.00;;;4.70;99.90;4.40;100851.00;;;;4970936;28;88754;-68
2022/12/20 10:15:53;;;;;;;19.83;11.60;;;4.70;99.90;4.40;100844.00;;;;4971658;27;88193;-69
2022/12/20 10:18:49;;;;;;;20.67;9.57;;;5.50;99.90;4.40;100838.00;;;;4970868;28;87943;-68
2022/12/20 10:21:54;;;;;;;22.27;10.77;;;4.60;99.90;4.40;100845.00;;;;4989484;27;87789;-67
2022/12/20 10:24:29;;;;;;;13.53;9.00;;;4.60;99.90;4.30;100852.00;;;;4984819;27;88254;-69
2022/12/20 10:26:55;;;;;;;17.57;9.80;;;4.60;99.90;4.30;100835.00;;;;4973668;28;89326;-67
2022/12/20 10:29:21;;;;;;;17.30;9.30;;;4.50;99.90;4.30;100847.00;;;;4958641;28;87818;-67
2022/12/20 10:31:58;;;;;;;21.20;10.37;;;4.50;99.90;4.20;100843.00;;;;4954855;28;87174;-69
2022/12/20 10:34:23;;;;;;;15.63;10.77;;;4.90;99.90;4.20;100839.00;;;;4969948;28;88967;-68
2022/12/20 10:37:11;;;;;;;19.73;11.17;;;4.40;99.90;4.20;100828.00;;;;4987122;28;87835;-68
2022/12/20 10:39:46;;;;;;;15.37;10.73;;;4.40;99.90;4.20;100824.00;;;;4968276;28;88971;-69
2022/12/20 10:42:39;;;;;;;15.53;9.03;;;4.40;99.90;4.10;100811.00;;;;4987843;27;88055;-69
2022/12/20 10:45:14;;;;;;;21.40;11.50;;;4.40;99.90;4.10;100809.00;;;;4967528;27;87819;-69
2022/12/20 10:47:44;;;;;;;20.00;10.70;;;4.40;99.90;4.10;100825.00;;;;4988063;27;88310;-70
2022/12/20 10:50:21;;;;;;;21.47;10.57;;;4.30;99.90;4.20;100810.00;;;;4943859;28;88420;-69
2022/12/20 10:53:16;;;;;;;14.37;11.20;;;4.40;99.90;4.20;100810.00;;;;4969001;28;87834;-68
2022/12/20 10:55:42;;;;;;;16.60;9.87;;;4.80;99.90;4.20;100804.00;;;;4968937;28;89411;-68
2022/12/20 10:58:29;;;;;;;18.27;10.23;;;4.40;99.90;4.20;100795.00;;;;4987846;27;103347;-67
2022/12/20 11:01:18;;;;;;;16.30;11.50;;;4.40;99.90;4.20;100792.00;;;;4967963;28;87833;-68
2022/12/20 11:04:31;;;;;;;19.97;11.23;;;4.50;99.90;4.20;100788.00;;;;4965615;28;87961;-66
2022/12/20 11:06:59;;;;;;;14.47;10.17;;;4.40;99.90;4.30;100777.00;;;;4951592;28;90434;-68